createdAt,value
2019-02-28T00:00:08.936Z,1009.60
2019-02-28T00:01:11.888Z,1009.55
2019-02-28T00:02:08.841Z,1009.54
2019-02-28T00:03:08.795Z,1009.53
2019-02-28T00:04:08.747Z,1009.53
2019-02-28T00:05:08.701Z,1009.49
2019-02-28T00:06:11.783Z,1009.50
2019-02-28T00:07:08.609Z,1009.48
2019-02-28T00:08:08.566Z,1009.51
2019-02-28T00:09:08.516Z,1009.45
2019-02-28T00:10:08.471Z,1009.44
2019-02-28T00:11:08.424Z,1009.38
2019-02-28T00:12:10.229Z,1009.36
2019-02-28T00:13:08.331Z,1009.37
2019-02-28T00:14:08.285Z,1009.40
2019-02-28T00:15:08.238Z,1009.34
2019-02-28T00:16:08.191Z,1009.37
2019-02-28T00:17:09.146Z,1009.38
2019-02-28T00:18:08.100Z,1009.31
2019-02-28T00:19:08.053Z,1009.34
2019-02-28T00:20:08.008Z,1009.30
2019-02-28T00:21:08.009Z,1009.26
2019-02-28T00:22:07.914Z,1009.25
2019-02-28T00:23:07.868Z,1009.21
2019-02-28T00:24:07.822Z,1009.21
2019-02-28T00:25:07.773Z,1009.17
2019-02-28T00:26:11.284Z,1009.17
2019-02-28T00:27:07.682Z,1009.18
2019-02-28T00:28:07.636Z,1009.14
2019-02-28T00:29:09.408Z,1009.12
2019-02-28T00:30:07.545Z,1009.10
2019-02-28T00:31:07.496Z,1009.07
2019-02-28T00:32:07.451Z,1009.05
2019-02-28T00:33:07.403Z,1009.05
2019-02-28T00:34:07.356Z,1009.04
2019-02-28T00:35:07.310Z,1009.02
2019-02-28T00:36:07.263Z,1009.03
2019-02-28T00:37:07.217Z,1008.98
2019-02-28T00:38:07.171Z,1009.00
2019-02-28T00:39:07.127Z,1008.99
2019-02-28T00:40:07.605Z,1008.90
2019-02-28T00:41:09.339Z,1008.90
2019-02-28T00:42:06.985Z,1008.92
2019-02-28T00:43:06.990Z,1008.88
2019-02-28T00:44:06.892Z,1008.84
2019-02-28T00:45:06.846Z,1008.83
2019-02-28T00:46:07.216Z,1008.82
2019-02-28T00:47:06.753Z,1008.82
2019-02-28T00:48:06.706Z,1008.80
2019-02-28T00:49:06.663Z,1008.78
2019-02-28T00:50:06.614Z,1008.73
2019-02-28T00:51:06.567Z,1008.67
2019-02-28T00:52:06.520Z,1008.66
2019-02-28T00:53:07.388Z,1008.67
2019-02-28T00:54:08.597Z,1008.62
2019-02-28T00:55:06.382Z,1008.61
2019-02-28T00:56:06.333Z,1008.60
2019-02-28T00:57:06.289Z,1008.57
2019-02-28T00:58:06.242Z,1008.57
2019-02-28T00:59:06.196Z,1008.55
2019-02-28T01:00:06.392Z,1008.53
2019-02-28T01:01:08.450Z,1008.50
2019-02-28T01:02:06.066Z,1008.54
2019-02-28T01:03:06.010Z,1008.49
2019-02-28T01:04:05.966Z,1008.51
2019-02-28T01:05:06.121Z,1008.49
2019-02-28T01:06:09.705Z,1008.50
2019-02-28T01:07:05.823Z,1008.51
2019-02-28T01:08:05.777Z,1008.49
2019-02-28T01:09:05.736Z,1008.47
2019-02-28T01:10:05.685Z,1008.46
2019-02-28T01:11:05.638Z,1008.43
2019-02-28T01:12:05.591Z,1008.43
2019-02-28T01:13:05.546Z,1008.40
2019-02-28T01:14:05.499Z,1008.37
2019-02-28T01:15:07.188Z,1008.34
2019-02-28T01:16:05.406Z,1008.33
2019-02-28T01:17:05.360Z,1008.30
2019-02-28T01:18:05.635Z,1008.29
2019-02-28T01:19:08.775Z,1008.33
2019-02-28T01:20:05.219Z,1008.27
2019-02-28T01:21:05.173Z,1008.21
2019-02-28T01:22:05.127Z,1008.19
2019-02-28T01:23:05.081Z,1008.19
2019-02-28T01:24:05.034Z,1008.16
2019-02-28T01:25:06.481Z,1008.18
2019-02-28T01:26:04.941Z,1008.13
2019-02-28T01:27:04.895Z,1008.11
2019-02-28T01:28:04.848Z,1008.10
2019-02-28T01:29:04.801Z,1008.11
2019-02-28T01:30:06.687Z,1008.09
2019-02-28T01:31:04.709Z,1008.08
2019-02-28T01:32:04.664Z,1008.04
2019-02-28T01:33:04.616Z,1008.04
2019-02-28T01:34:04.570Z,1007.99
2019-02-28T01:35:06.795Z,1007.96
2019-02-28T01:36:04.477Z,1007.97
2019-02-28T01:37:04.431Z,1007.95
2019-02-28T01:38:04.388Z,1007.94
2019-02-28T01:39:04.338Z,1007.93
2019-02-28T01:40:05.241Z,1007.96
2019-02-28T01:41:04.246Z,1007.93
2019-02-28T01:42:04.198Z,1007.95
2019-02-28T01:43:04.151Z,1007.93
2019-02-28T01:44:04.107Z,1007.90
2019-02-28T01:45:04.059Z,1007.85
2019-02-28T01:46:04.012Z,1007.88
2019-02-28T01:47:04.016Z,1007.86
2019-02-28T01:48:03.921Z,1007.81
2019-02-28T01:49:03.871Z,1007.87
2019-02-28T01:50:03.826Z,1007.87
2019-02-28T01:51:03.805Z,1007.86
2019-02-28T01:52:03.736Z,1007.90
2019-02-28T01:53:03.686Z,1007.91
2019-02-28T01:54:03.641Z,1007.86
2019-02-28T01:55:03.594Z,1007.87
2019-02-28T01:56:03.573Z,1007.80
2019-02-28T01:57:03.503Z,1007.83
2019-02-28T01:58:03.455Z,1007.80
2019-02-28T01:59:03.410Z,1007.77
2019-02-28T02:00:03.361Z,1007.78
2019-02-28T02:01:03.338Z,1007.71
2019-02-28T02:02:06.652Z,1007.72
2019-02-28T02:03:03.223Z,1007.69
2019-02-28T02:04:03.174Z,1007.70
2019-02-28T02:05:03.129Z,1007.66
2019-02-28T02:06:03.083Z,1007.65
2019-02-28T02:07:03.038Z,1007.57
2019-02-28T02:08:06.566Z,1007.56
2019-02-28T02:09:02.943Z,1007.61
2019-02-28T02:10:02.897Z,1007.57
2019-02-28T02:11:02.851Z,1007.63
2019-02-28T02:12:02.804Z,1007.58
2019-02-28T02:13:03.482Z,1007.56
2019-02-28T02:14:02.711Z,1007.54
2019-02-28T02:15:02.666Z,1007.52
2019-02-28T02:16:02.617Z,1007.54
2019-02-28T02:17:02.572Z,1007.58
2019-02-28T02:18:02.525Z,1007.57
2019-02-28T02:19:02.479Z,1007.58
2019-02-28T02:20:02.431Z,1007.56
2019-02-28T02:21:02.386Z,1007.56
2019-02-28T02:22:02.339Z,1007.56
2019-02-28T02:23:02.297Z,1007.59
2019-02-28T02:24:02.247Z,1007.55
2019-02-28T02:25:02.845Z,1007.51
2019-02-28T02:26:02.153Z,1007.50
2019-02-28T02:27:02.106Z,1007.48
2019-02-28T02:28:02.060Z,1007.47
2019-02-28T02:29:02.032Z,1007.51
2019-02-28T02:30:01.968Z,1007.49
2019-02-28T02:31:01.924Z,1007.52
2019-02-28T02:32:02.625Z,1007.47
2019-02-28T02:33:01.837Z,1007.48
2019-02-28T02:34:01.789Z,1007.49
2019-02-28T02:35:08.127Z,1007.50
2019-02-28T02:36:01.699Z,1007.51
2019-02-28T02:37:01.644Z,1007.46
2019-02-28T02:38:03.682Z,1007.45
2019-02-28T02:39:01.549Z,1007.37
2019-02-28T02:40:01.503Z,1007.40
2019-02-28T02:41:01.458Z,1007.39
2019-02-28T02:42:01.410Z,1007.31
2019-02-28T02:43:01.368Z,1007.30
2019-02-28T02:44:01.328Z,1007.26
2019-02-28T02:45:05.101Z,1007.26
2019-02-28T02:46:01.225Z,1007.22
2019-02-28T02:47:01.178Z,1007.19
2019-02-28T02:48:05.261Z,1007.12
2019-02-28T02:49:01.085Z,1007.18
2019-02-28T02:50:01.038Z,1007.17
2019-02-28T02:51:00.991Z,1007.10
2019-02-28T02:52:00.945Z,1007.07
2019-02-28T02:53:05.013Z,1007.09
2019-02-28T02:54:00.852Z,1007.06
2019-02-28T02:55:00.805Z,1007.05
2019-02-28T02:56:03.842Z,1007.07
2019-02-28T02:57:00.718Z,1006.98
2019-02-28T02:58:00.667Z,1006.98
2019-02-28T02:59:02.106Z,1006.93
2019-02-28T03:00:00.573Z,1006.92
2019-02-28T03:01:00.527Z,1006.92
2019-02-28T03:02:00.485Z,1006.93
2019-02-28T03:03:00.434Z,1006.92
2019-02-28T03:04:00.387Z,1006.95
2019-02-28T03:05:00.382Z,1006.93
2019-02-28T03:06:00.294Z,1006.94
2019-02-28T03:07:00.251Z,1006.93
2019-02-28T03:08:01.107Z,1006.90
2019-02-28T03:09:00.154Z,1006.93
2019-02-28T03:10:00.199Z,1006.99
2019-02-28T03:11:00.065Z,1006.89
2019-02-28T03:12:00.015Z,1006.93
2019-02-28T03:12:59.969Z,1006.89
2019-02-28T03:13:59.922Z,1006.84
2019-02-28T03:14:59.883Z,1006.81
2019-02-28T03:16:00.534Z,1006.80
2019-02-28T03:16:59.785Z,1006.81
2019-02-28T03:17:59.735Z,1006.81
2019-02-28T03:18:59.690Z,1006.84
2019-02-28T03:19:59.644Z,1006.81
2019-02-28T03:20:59.597Z,1006.77
2019-02-28T03:21:59.555Z,1006.81
2019-02-28T03:23:02.236Z,1006.81
2019-02-28T03:23:59.457Z,1006.82
2019-02-28T03:24:59.411Z,1006.85
2019-02-28T03:26:05.361Z,1006.83
2019-02-28T03:26:59.335Z,1006.83
2019-02-28T03:27:59.280Z,1006.80
2019-02-28T03:28:59.226Z,1006.82
2019-02-28T03:29:59.195Z,1006.86
2019-02-28T03:30:59.194Z,1006.85
2019-02-28T03:31:59.820Z,1006.83
2019-02-28T03:32:59.047Z,1006.84
2019-02-28T03:34:10.484Z,1006.84
2019-02-28T03:34:59.533Z,1006.79
2019-02-28T03:35:59.011Z,1006.83
2019-02-28T03:36:58.857Z,1006.79
2019-02-28T03:37:58.833Z,1006.82
2019-02-28T03:38:58.767Z,1006.81
2019-02-28T03:40:04.243Z,1006.77
2019-02-28T03:40:58.667Z,1006.75
2019-02-28T03:41:58.621Z,1006.78
2019-02-28T03:43:05.530Z,1006.77
2019-02-28T03:43:58.528Z,1006.75
2019-02-28T03:44:58.493Z,1006.74
2019-02-28T03:45:58.434Z,1006.79
2019-02-28T03:46:58.390Z,1006.72
2019-02-28T03:47:59.695Z,1006.70
2019-02-28T03:48:58.294Z,1006.68
2019-02-28T03:49:58.249Z,1006.67
2019-02-28T03:50:58.203Z,1006.63
2019-02-28T03:52:05.418Z,1006.60
2019-02-28T03:52:58.112Z,1006.59
2019-02-28T03:53:58.070Z,1006.63
2019-02-28T03:55:03.395Z,1006.59
2019-02-28T03:55:57.969Z,1006.60
2019-02-28T03:56:57.923Z,1006.57
2019-02-28T03:58:04.370Z,1006.57
2019-02-28T03:58:57.834Z,1006.53
2019-02-28T03:59:57.784Z,1006.54
2019-02-28T04:00:57.738Z,1006.48
2019-02-28T04:01:57.691Z,1006.54
2019-02-28T04:02:59.069Z,1006.46
2019-02-28T04:03:57.599Z,1006.46
2019-02-28T04:04:57.550Z,1006.46
2019-02-28T04:06:02.892Z,1006.44
2019-02-28T04:06:57.458Z,1006.55
2019-02-28T04:07:57.411Z,1006.55
2019-02-28T04:08:57.365Z,1006.50
2019-02-28T04:09:57.319Z,1006.53
2019-02-28T04:10:57.273Z,1006.50
2019-02-28T04:11:57.226Z,1006.49
2019-02-28T04:12:57.178Z,1006.46
2019-02-28T04:13:57.133Z,1006.41
2019-02-28T04:14:57.087Z,1006.42
2019-02-28T04:16:08.690Z,1006.39
2019-02-28T04:16:56.993Z,1006.40
2019-02-28T04:17:56.946Z,1006.38
2019-02-28T04:18:56.900Z,1006.37
2019-02-28T04:19:59.986Z,1006.34
2019-02-28T04:20:56.806Z,1006.28
2019-02-28T04:21:56.761Z,1006.21
2019-02-28T04:23:00.085Z,1006.22
2019-02-28T04:23:56.667Z,1006.27
2019-02-28T04:24:56.656Z,1006.24
2019-02-28T04:25:57.806Z,1006.21
2019-02-28T04:26:56.529Z,1006.24
2019-02-28T04:27:56.481Z,1006.21
2019-02-28T04:28:56.440Z,1006.21
2019-02-28T04:29:56.389Z,1006.24
2019-02-28T04:30:56.342Z,1006.19
2019-02-28T04:31:58.045Z,1006.17
2019-02-28T04:33:01.129Z,1006.21
2019-02-28T04:33:56.202Z,1006.21
2019-02-28T04:34:56.156Z,1006.21
2019-02-28T04:35:56.818Z,1006.17
2019-02-28T04:36:56.062Z,1006.15
2019-02-28T04:37:56.018Z,1006.13
2019-02-28T04:38:55.972Z,1006.09
2019-02-28T04:39:56.023Z,1006.07
2019-02-28T04:40:58.777Z,1006.03
2019-02-28T04:41:55.830Z,1006.02
2019-02-28T04:42:55.783Z,1005.99
2019-02-28T04:43:55.737Z,1006.02
2019-02-28T04:44:55.691Z,1006.00
2019-02-28T04:45:57.661Z,1005.92
2019-02-28T04:46:55.598Z,1005.91
2019-02-28T04:47:55.549Z,1005.96
2019-02-28T04:48:55.504Z,1005.97
2019-02-28T04:49:57.044Z,1005.96
2019-02-28T04:50:55.410Z,1005.95
2019-02-28T04:51:55.364Z,1005.96
2019-02-28T04:52:55.317Z,1005.93
2019-02-28T04:53:55.271Z,1005.91
2019-02-28T04:54:55.225Z,1005.91
2019-02-28T04:55:55.178Z,1005.92
2019-02-28T04:56:55.131Z,1005.86
2019-02-28T04:57:55.085Z,1005.87
2019-02-28T04:58:56.500Z,1005.90
2019-02-28T04:59:55.042Z,1005.87
2019-02-28T05:00:54.945Z,1005.83
2019-02-28T05:01:54.899Z,1005.81
2019-02-28T05:02:55.087Z,1005.79
2019-02-28T05:03:54.806Z,1005.78
2019-02-28T05:04:54.759Z,1005.71
2019-02-28T05:05:54.713Z,1005.75
2019-02-28T05:06:55.153Z,1005.79
2019-02-28T05:07:54.619Z,1005.75
2019-02-28T05:08:54.573Z,1005.73
2019-02-28T05:09:54.527Z,1005.72
2019-02-28T05:10:55.849Z,1005.67
2019-02-28T05:11:54.441Z,1005.73
2019-02-28T05:12:54.387Z,1005.69
2019-02-28T05:13:54.340Z,1005.67
2019-02-28T05:14:55.253Z,1005.72
2019-02-28T05:15:54.247Z,1005.69
2019-02-28T05:16:54.207Z,1005.74
2019-02-28T05:17:55.890Z,1005.72
2019-02-28T05:18:54.109Z,1005.74
2019-02-28T05:19:55.199Z,1005.80
2019-02-28T05:20:54.015Z,1005.76
2019-02-28T05:21:54.331Z,1005.72
2019-02-28T05:22:53.976Z,1005.73
2019-02-28T05:23:53.874Z,1005.70
2019-02-28T05:24:53.829Z,1005.71
2019-02-28T05:25:53.782Z,1005.77
2019-02-28T05:26:53.738Z,1005.71
2019-02-28T05:27:53.695Z,1005.75
2019-02-28T05:28:53.643Z,1005.77
2019-02-28T05:29:53.595Z,1005.74
2019-02-28T05:30:53.879Z,1005.80
2019-02-28T05:31:53.502Z,1005.84
2019-02-28T05:32:53.456Z,1005.77
2019-02-28T05:33:53.409Z,1005.77
2019-02-28T05:34:53.363Z,1005.70
2019-02-28T05:35:53.316Z,1005.63
2019-02-28T05:36:53.272Z,1005.60
2019-02-28T05:37:53.223Z,1005.59
2019-02-28T05:38:53.532Z,1005.55
2019-02-28T05:39:53.130Z,1005.55
2019-02-28T05:40:53.083Z,1005.54
2019-02-28T05:41:53.038Z,1005.55
2019-02-28T05:42:54.718Z,1005.57
2019-02-28T05:43:52.993Z,1005.53
2019-02-28T05:44:52.897Z,1005.48
2019-02-28T05:45:52.850Z,1005.44
2019-02-28T05:46:57.601Z,1005.44
2019-02-28T05:47:52.757Z,1005.43
2019-02-28T05:48:52.710Z,1005.43
2019-02-28T05:49:52.664Z,1005.46
2019-02-28T05:50:53.297Z,1005.45
2019-02-28T05:51:52.571Z,1005.43
2019-02-28T05:52:52.524Z,1005.40
2019-02-28T05:53:52.478Z,1005.46
2019-02-28T05:54:52.431Z,1005.46
2019-02-28T05:55:52.384Z,1005.44
2019-02-28T05:56:52.338Z,1005.49
2019-02-28T05:57:52.292Z,1005.47
2019-02-28T05:58:52.511Z,1005.50
2019-02-28T05:59:52.200Z,1005.45
2019-02-28T06:00:52.151Z,1005.42
2019-02-28T06:01:52.105Z,1005.48
2019-02-28T06:02:54.463Z,1005.54
2019-02-28T06:03:52.012Z,1005.59
2019-02-28T06:04:52.014Z,1005.55
2019-02-28T06:05:51.970Z,1005.60
2019-02-28T06:06:54.658Z,1005.62
2019-02-28T06:07:51.825Z,1005.61
2019-02-28T06:08:51.779Z,1005.62
2019-02-28T06:09:51.733Z,1005.57
2019-02-28T06:10:51.686Z,1005.63
2019-02-28T06:11:51.639Z,1005.67
2019-02-28T06:12:51.595Z,1005.64
2019-02-28T06:13:52.851Z,1005.67
2019-02-28T06:14:51.500Z,1005.72
2019-02-28T06:15:51.453Z,1005.71
2019-02-28T06:16:51.406Z,1005.78
2019-02-28T06:17:54.671Z,1005.79
2019-02-28T06:18:51.314Z,1005.79
2019-02-28T06:19:51.266Z,1005.85
2019-02-28T06:20:52.187Z,1005.87
2019-02-28T06:21:52.977Z,1005.89
2019-02-28T06:22:51.127Z,1005.86
2019-02-28T06:23:51.080Z,1005.89
2019-02-28T06:24:51.034Z,1005.97
2019-02-28T06:25:50.989Z,1005.90
2019-02-28T06:26:50.947Z,1005.92
2019-02-28T06:27:50.893Z,1005.88
2019-02-28T06:28:50.848Z,1005.87
2019-02-28T06:29:50.800Z,1005.91
2019-02-28T06:30:50.756Z,1005.91
2019-02-28T06:31:50.708Z,1005.86
2019-02-28T06:32:50.661Z,1005.81
2019-02-28T06:33:50.614Z,1005.84
2019-02-28T06:34:50.570Z,1005.84
2019-02-28T06:35:53.690Z,1005.84
2019-02-28T06:36:50.475Z,1005.80
2019-02-28T06:37:50.429Z,1005.85
2019-02-28T06:38:51.467Z,1005.85
2019-02-28T06:39:50.336Z,1005.87
2019-02-28T06:40:50.289Z,1005.85
2019-02-28T06:41:50.248Z,1005.85
2019-02-28T06:42:50.196Z,1005.87
2019-02-28T06:43:52.865Z,1005.82
2019-02-28T06:44:50.102Z,1005.86
2019-02-28T06:45:50.057Z,1005.88
2019-02-28T06:46:50.013Z,1005.89
2019-02-28T06:47:50.243Z,1005.84
2019-02-28T06:48:49.967Z,1005.88
2019-02-28T06:49:49.871Z,1005.87
2019-02-28T06:50:49.823Z,1005.89
2019-02-28T06:51:51.343Z,1005.89
2019-02-28T06:52:49.731Z,1005.89
2019-02-28T06:53:49.684Z,1005.84
2019-02-28T06:54:49.638Z,1005.88
2019-02-28T06:55:49.591Z,1005.94
2019-02-28T06:56:49.547Z,1005.98
2019-02-28T06:57:49.498Z,1005.95
2019-02-28T06:58:49.453Z,1005.95
2019-02-28T06:59:49.413Z,1005.87
2019-02-28T07:00:50.516Z,1005.86
2019-02-28T07:01:49.313Z,1005.83
2019-02-28T07:02:50.147Z,1005.86
2019-02-28T07:03:53.519Z,1005.83
2019-02-28T07:04:49.486Z,1005.81
2019-02-28T07:05:49.127Z,1005.76
2019-02-28T07:06:49.080Z,1005.72
2019-02-28T07:07:49.969Z,1005.71
2019-02-28T07:08:48.987Z,1005.64
2019-02-28T07:09:48.943Z,1005.63
2019-02-28T07:10:49.320Z,1005.63
2019-02-28T07:11:51.307Z,1005.60
2019-02-28T07:12:48.806Z,1005.52
2019-02-28T07:13:48.756Z,1005.48
2019-02-28T07:14:49.587Z,1005.50
2019-02-28T07:15:48.666Z,1005.43
2019-02-28T07:16:48.616Z,1005.44
2019-02-28T07:17:48.576Z,1005.45
2019-02-28T07:18:52.814Z,1005.54
2019-02-28T07:19:48.476Z,1005.50
2019-02-28T07:20:48.430Z,1005.55
2019-02-28T07:21:48.385Z,1005.62
2019-02-28T07:22:48.345Z,1005.61
2019-02-28T07:23:48.293Z,1005.58
2019-02-28T07:24:48.265Z,1005.60
2019-02-28T07:25:48.199Z,1005.61
2019-02-28T07:26:48.315Z,1005.63
2019-02-28T07:27:48.109Z,1005.59
2019-02-28T07:28:48.061Z,1005.61
2019-02-28T07:29:48.016Z,1005.65
2019-02-28T07:30:50.307Z,1005.73
2019-02-28T07:31:47.931Z,1005.74
2019-02-28T07:32:47.884Z,1005.76
2019-02-28T07:33:47.830Z,1005.78
2019-02-28T07:34:47.788Z,1005.79
2019-02-28T07:35:47.740Z,1005.81
2019-02-28T07:36:47.692Z,1005.79
2019-02-28T07:37:53.398Z,1005.77
2019-02-28T07:38:47.604Z,1005.76
2019-02-28T07:39:47.554Z,1005.74
2019-02-28T07:40:49.411Z,1005.70
2019-02-28T07:41:47.462Z,1005.73
2019-02-28T07:42:47.441Z,1005.81
2019-02-28T07:43:47.424Z,1005.81
2019-02-28T07:44:47.329Z,1005.80
2019-02-28T07:45:47.287Z,1005.76
2019-02-28T07:46:47.234Z,1005.76
2019-02-28T07:47:51.494Z,1005.79
2019-02-28T07:48:47.155Z,1005.73
2019-02-28T07:49:47.108Z,1005.79
2019-02-28T07:50:47.730Z,1005.80
2019-02-28T07:51:47.003Z,1005.79
2019-02-28T07:52:46.961Z,1005.84
2019-02-28T07:53:46.964Z,1005.84
2019-02-28T07:54:47.457Z,1005.82
2019-02-28T07:55:46.821Z,1005.84
2019-02-28T07:56:46.775Z,1005.82
2019-02-28T07:57:50.952Z,1005.86
2019-02-28T07:58:46.683Z,1005.83
2019-02-28T07:59:46.638Z,1005.86
2019-02-28T08:00:48.411Z,1005.91
2019-02-28T08:01:46.548Z,1005.95
2019-02-28T08:02:46.503Z,1005.96
2019-02-28T08:03:46.463Z,1005.94
2019-02-28T08:04:46.410Z,1005.96
2019-02-28T08:05:46.365Z,1006.01
2019-02-28T08:06:46.327Z,1005.96
2019-02-28T08:07:50.937Z,1005.99
2019-02-28T08:08:46.228Z,1005.98
2019-02-28T08:09:46.182Z,1005.96
2019-02-28T08:10:47.987Z,1005.96
2019-02-28T08:11:46.092Z,1005.90
2019-02-28T08:12:46.050Z,1005.94
2019-02-28T08:13:46.000Z,1005.97
2019-02-28T08:14:47.082Z,1005.93
2019-02-28T08:15:45.908Z,1006.00
2019-02-28T08:16:45.913Z,1005.97
2019-02-28T08:17:45.818Z,1005.93
2019-02-28T08:18:45.773Z,1005.92
2019-02-28T08:19:45.731Z,1005.89
2019-02-28T08:20:45.681Z,1005.90
2019-02-28T08:21:50.226Z,1005.88
2019-02-28T08:22:45.592Z,1005.91
2019-02-28T08:23:45.546Z,1005.89
2019-02-28T08:24:45.505Z,1005.91
2019-02-28T08:25:45.455Z,1006.00
2019-02-28T08:26:45.412Z,1005.97
2019-02-28T08:27:45.366Z,1006.00
2019-02-28T08:28:45.324Z,1005.93
2019-02-28T08:29:46.058Z,1005.92
2019-02-28T08:30:47.278Z,1005.95
2019-02-28T08:31:45.196Z,1006.01
2019-02-28T08:32:47.078Z,1005.97
2019-02-28T08:33:48.156Z,1005.97
2019-02-28T08:34:46.866Z,1006.03
2019-02-28T08:35:45.006Z,1006.01
2019-02-28T08:36:46.917Z,1006.03
2019-02-28T08:37:44.965Z,1005.98
2019-02-28T08:38:44.872Z,1006.02
2019-02-28T08:39:44.823Z,1005.98
2019-02-28T08:40:50.492Z,1006.02
2019-02-28T08:41:44.733Z,1005.97
2019-02-28T08:42:44.688Z,1005.95
2019-02-28T08:43:47.594Z,1006.01
2019-02-28T08:44:44.598Z,1005.98
2019-02-28T08:45:44.552Z,1006.01
2019-02-28T08:46:46.548Z,1005.98
2019-02-28T08:47:44.463Z,1005.96
2019-02-28T08:48:44.416Z,1005.96
2019-02-28T08:49:45.518Z,1005.93
2019-02-28T08:50:44.328Z,1005.90
2019-02-28T08:51:44.281Z,1005.83
2019-02-28T08:52:44.237Z,1005.82
2019-02-28T08:53:44.193Z,1005.81
2019-02-28T08:54:44.148Z,1005.83
2019-02-28T08:55:44.414Z,1005.75
2019-02-28T08:56:46.261Z,1005.75
2019-02-28T08:57:44.010Z,1005.71
2019-02-28T08:58:43.970Z,1005.70
2019-02-28T08:59:43.920Z,1005.71
2019-02-28T09:00:43.876Z,1005.75
2019-02-28T09:01:44.289Z,1005.74
2019-02-28T09:02:43.786Z,1005.71
2019-02-28T09:03:43.742Z,1005.73
2019-02-28T09:04:44.905Z,1005.75
2019-02-28T09:05:43.652Z,1005.77
2019-02-28T09:06:43.607Z,1005.81
2019-02-28T09:07:43.558Z,1005.80
2019-02-28T09:08:43.514Z,1005.74
2019-02-28T09:09:43.469Z,1005.66
2019-02-28T09:10:43.731Z,1005.63
2019-02-28T09:11:43.379Z,1005.62
2019-02-28T09:12:43.334Z,1005.65
2019-02-28T09:13:43.648Z,1005.70
2019-02-28T09:14:43.244Z,1005.70
2019-02-28T09:15:43.197Z,1005.73
2019-02-28T09:16:43.153Z,1005.77
2019-02-28T09:17:43.108Z,1005.83
2019-02-28T09:18:44.790Z,1005.88
2019-02-28T09:19:43.021Z,1005.90
2019-02-28T09:20:45.068Z,1005.88
2019-02-28T09:21:42.930Z,1005.86
2019-02-28T09:22:42.881Z,1005.79
2019-02-28T09:23:42.835Z,1005.75
2019-02-28T09:24:43.689Z,1005.75
2019-02-28T09:25:42.749Z,1005.75
2019-02-28T09:26:42.701Z,1005.79
2019-02-28T09:27:42.655Z,1005.82
2019-02-28T09:28:44.365Z,1005.80
2019-02-28T09:29:42.565Z,1005.81
2019-02-28T09:30:42.519Z,1005.80
2019-02-28T09:31:42.474Z,1005.74
2019-02-28T09:32:45.250Z,1005.73
2019-02-28T09:33:42.384Z,1005.74
2019-02-28T09:34:42.339Z,1005.70
2019-02-28T09:35:45.539Z,1005.71
2019-02-28T09:36:42.247Z,1005.73
2019-02-28T09:37:42.203Z,1005.73
2019-02-28T09:38:45.000Z,1005.79
2019-02-28T09:39:42.111Z,1005.80
2019-02-28T09:40:42.067Z,1005.75
2019-02-28T09:41:42.021Z,1005.75
2019-02-28T09:42:41.975Z,1005.78
2019-02-28T09:43:41.980Z,1005.78
2019-02-28T09:44:41.885Z,1005.76
2019-02-28T09:45:41.842Z,1005.75
2019-02-28T09:46:41.794Z,1005.75
2019-02-28T09:47:41.748Z,1005.75
2019-02-28T09:48:41.703Z,1005.82
2019-02-28T09:49:44.256Z,1005.88
2019-02-28T09:50:41.620Z,1005.91
2019-02-28T09:51:42.547Z,1005.96
2019-02-28T09:52:42.542Z,1005.96
2019-02-28T09:53:41.477Z,1005.94
2019-02-28T09:54:42.109Z,1005.93
2019-02-28T09:55:41.385Z,1005.93
2019-02-28T09:56:44.517Z,1005.91
2019-02-28T09:57:41.295Z,1005.97
2019-02-28T09:58:41.249Z,1005.92
2019-02-28T09:59:41.203Z,1005.92
2019-02-28T10:00:43.375Z,1005.88
2019-02-28T10:01:42.464Z,1005.91
2019-02-28T10:02:44.058Z,1005.91
2019-02-28T10:03:41.022Z,1005.93
2019-02-28T10:04:41.027Z,1005.94
2019-02-28T10:05:42.363Z,1005.93
2019-02-28T10:06:40.888Z,1005.94
2019-02-28T10:07:40.840Z,1005.90
2019-02-28T10:08:40.797Z,1005.90
2019-02-28T10:09:44.440Z,1005.90
2019-02-28T10:10:40.703Z,1005.90
2019-02-28T10:11:40.683Z,1005.95
2019-02-28T10:12:43.058Z,1006.03
2019-02-28T10:13:40.567Z,1006.03
2019-02-28T10:14:40.526Z,1006.06
2019-02-28T10:15:41.860Z,1006.09
2019-02-28T10:16:40.431Z,1006.06
2019-02-28T10:17:42.193Z,1006.01
2019-02-28T10:18:40.339Z,1006.06
2019-02-28T10:19:45.571Z,1006.06
2019-02-28T10:20:40.252Z,1006.13
2019-02-28T10:21:40.203Z,1006.18
2019-02-28T10:22:40.160Z,1006.18
2019-02-28T10:23:40.111Z,1006.16
2019-02-28T10:24:40.066Z,1006.13
2019-02-28T10:25:43.456Z,1006.12
2019-02-28T10:26:39.976Z,1006.14
2019-02-28T10:27:39.981Z,1006.15
2019-02-28T10:28:39.884Z,1006.09
2019-02-28T10:29:41.814Z,1006.11
2019-02-28T10:30:39.795Z,1006.09
2019-02-28T10:31:39.750Z,1006.14
2019-02-28T10:32:40.358Z,1006.12
2019-02-28T10:33:39.657Z,1006.13
2019-02-28T10:34:39.611Z,1006.13
2019-02-28T10:35:39.565Z,1006.15
2019-02-28T10:36:39.520Z,1006.06
2019-02-28T10:37:39.474Z,1006.04
2019-02-28T10:38:39.430Z,1005.99
2019-02-28T10:39:40.297Z,1006.00
2019-02-28T10:40:39.336Z,1005.95
2019-02-28T10:41:39.295Z,1005.94
2019-02-28T10:42:40.340Z,1005.99
2019-02-28T10:43:39.212Z,1006.10
2019-02-28T10:44:39.154Z,1005.97
2019-02-28T10:45:42.162Z,1005.99
2019-02-28T10:46:39.065Z,1006.01
2019-02-28T10:47:39.017Z,1005.98
2019-02-28T10:48:50.251Z,1005.93
2019-02-28T10:49:38.926Z,1005.96
2019-02-28T10:50:38.882Z,1005.95
2019-02-28T10:51:38.834Z,1005.92
2019-02-28T10:52:38.790Z,1005.96
2019-02-28T10:53:39.357Z,1005.93
2019-02-28T10:54:38.699Z,1005.88
2019-02-28T10:55:38.656Z,1005.89
2019-02-28T10:56:39.150Z,1005.85
2019-02-28T10:57:40.464Z,1005.85
2019-02-28T10:58:38.515Z,1005.88
2019-02-28T10:59:38.471Z,1005.85
2019-02-28T11:00:38.426Z,1005.85
2019-02-28T11:01:41.540Z,1005.86
2019-02-28T11:02:38.333Z,1005.81
2019-02-28T11:03:38.288Z,1005.85
2019-02-28T11:04:42.864Z,1005.78
2019-02-28T11:05:38.197Z,1005.78
2019-02-28T11:06:38.151Z,1005.73
2019-02-28T11:07:38.651Z,1005.71
2019-02-28T11:08:38.058Z,1005.76
2019-02-28T11:09:38.014Z,1005.79
2019-02-28T11:10:37.975Z,1005.82
2019-02-28T11:11:37.971Z,1005.85
2019-02-28T11:12:37.877Z,1005.89
2019-02-28T11:13:37.832Z,1005.83
2019-02-28T11:14:38.641Z,1005.82
2019-02-28T11:15:37.740Z,1005.77
2019-02-28T11:16:37.694Z,1005.75
2019-02-28T11:17:37.647Z,1005.76
2019-02-28T11:18:37.604Z,1005.78
2019-02-28T11:19:37.557Z,1005.80
2019-02-28T11:20:37.510Z,1005.77
2019-02-28T11:21:37.465Z,1005.82
2019-02-28T11:22:39.908Z,1005.84
2019-02-28T11:23:37.389Z,1005.87
2019-02-28T11:24:37.331Z,1005.93
2019-02-28T11:25:37.282Z,1005.92
2019-02-28T11:26:37.236Z,1005.93
2019-02-28T11:27:37.191Z,1005.94
2019-02-28T11:28:37.144Z,1005.94
2019-02-28T11:29:37.100Z,1005.94
2019-02-28T11:30:37.053Z,1005.95
2019-02-28T11:31:37.010Z,1005.94
2019-02-28T11:32:36.962Z,1005.87
2019-02-28T11:33:39.705Z,1005.90
2019-02-28T11:34:36.872Z,1005.90
2019-02-28T11:35:36.829Z,1005.92
2019-02-28T11:36:36.780Z,1005.95
2019-02-28T11:37:36.734Z,1005.91
2019-02-28T11:38:36.688Z,1005.91
2019-02-28T11:39:36.644Z,1005.90
2019-02-28T11:40:36.596Z,1005.91
2019-02-28T11:41:36.551Z,1005.87
2019-02-28T11:42:36.504Z,1005.93
2019-02-28T11:43:38.390Z,1005.84
2019-02-28T11:44:36.424Z,1005.90
2019-02-28T11:45:36.365Z,1005.91
2019-02-28T11:46:36.741Z,1005.90
2019-02-28T11:47:36.272Z,1006.02
2019-02-28T11:48:36.227Z,1005.97
2019-02-28T11:49:36.181Z,1006.00
2019-02-28T11:50:41.341Z,1006.01
2019-02-28T11:51:36.088Z,1005.95
2019-02-28T11:52:36.043Z,1005.98
2019-02-28T11:53:39.282Z,1005.95
2019-02-28T11:54:35.950Z,1005.96
2019-02-28T11:55:35.907Z,1005.93
2019-02-28T11:56:35.861Z,1005.98
2019-02-28T11:57:37.770Z,1006.01
2019-02-28T11:58:35.775Z,1005.98
2019-02-28T11:59:35.723Z,1005.94
2019-02-28T12:00:36.645Z,1005.88
2019-02-28T12:01:35.635Z,1005.86
2019-02-28T12:02:35.583Z,1005.85
2019-02-28T12:03:36.475Z,1005.88
2019-02-28T12:04:37.394Z,1005.80